Latest Coastal Weather Observations for Middle Percy Island

IDQ60701

Issued at 1:42 pm EST Tuesday 26 May 2020 (issued every 10 minutes, with the page automatically refreshed every 10 minutes)

About coastal observations | Map of coastal stations | Coastal observations for QLD | Marine services | Other Formats
Station Details ID: 200001 Name: MIDDLE PERCY ISLAND Lat: -21.66 Lon: 150.27 Height: 208.7 m
Data from the previous 72 hours. | See also: Recent months at Middle Percy Island
Date/Time
EST
Wind Sea
Height
m
Swell Vis
km
Cloud Weather Temp
°C
Press
hPa
Rain since
9am
mm
Dir  Spd
kts
Gust
kts
Height
m
Period
s
Dir
26/01:30pm SE 7 10 - - - - - - - 20.1 1018.3 0.0
26/01:00pm SSE 8 12 - - - - - - - 20.3 1018.6 0.0
26/12:30pm SSE 8 12 - - - - - - - 20.3 1019.0 0.0
26/12:00pm SE 7 12 - - - - - - - 20.5 1019.6 0.0
26/11:30am SSE 7 11 - - - - - - - 20.2 1019.8 0.0
26/11:00am SE 8 11 - - - - - - - 20.0 1020.0 0.0
26/10:30am S 9 14 - - - - - - - 19.3 1020.0 0.0
26/10:00am SSE 8 12 - - - - - - - 19.0 1020.2 0.0
26/09:30am S 7 11 - - - - - - - 18.7 1020.2 0.0
26/09:00am S 8 12 - - - - - - - 18.2 1020.1 0.0
26/08:30am S 8 11 - - - - - - - 17.8 1019.7 0.0
26/08:00am S 10 13 - - - - - - - 17.3 1019.6 0.0
26/07:30am SSW 7 11 - - - - - - - 16.8 1019.6 0.0
26/07:00am SSW 11 15 - - - - - - - 16.8 1019.4 0.0
26/06:30am SSW 8 17 - - - - - - - 17.0 1019.0 0.0
26/06:00am SW 7 10 - - - - - - - 16.9 1018.8 0.0
26/05:30am SW 7 10 - - - - - - - 16.8 1018.2 0.0
26/05:00am SW 7 11 - - - - - - - 16.9 1018.0 0.0
26/04:30am SSW 6 9 - - - - - - - 16.8 1017.7 0.0
26/04:00am WSW 7 11 - - - - - - - 16.9 1017.7 0.0
26/03:30am WSW 5 7 - - - - - - - 16.6 1017.7 0.0
26/03:00am WSW 6 9 - - - - - - - 16.8 1017.8 0.0
26/02:30am WSW 5 8 - - - - - - - 16.7 1018.0 0.0
26/02:00am SW 7 9 - - - - - - - 16.8 1018.3 0.0
26/01:30am WSW 6 9 - - - - - - - 16.9 1018.5 0.0
26/01:00am W 5 7 - - - - - - - 16.7 1018.5 0.0
26/12:30am NW 5 6 - - - - - - - 16.5 1018.9 0.0
26/12:00am NNW 5 6 - - - - - - - 16.5 1018.9 0.0
 
Date/Time
EST
Wind Sea
Height
m
Swell Vis
km
Cloud Weather Temp
°C
Press
hPa
Rain since
9am
mm
Dir  Spd
kts
Gust
kts
Height
m
Period
s
Dir
25/11:30pm NW 3 4 - - - - - - - 16.7 1019.2 0.0
25/11:00pm NW 5 6 - - - - - - - 16.6 1019.2 0.0
25/10:30pm WNW 5 6 - - - - - - - 16.7 1019.3 0.0
25/10:00pm NW 5 5 - - - - - - - 16.5 1019.3 0.0
25/09:30pm NW 5 6 - - - - - - - 16.4 1019.3 0.0
25/09:00pm WNW 5 5 - - - - - - - 16.3 1019.1 0.0
25/08:30pm NW 5 6 - - - - - - - 16.1 1018.9 0.0
25/08:00pm NW 5 6 - - - - - - - 16.1 1018.7 0.0
25/07:30pm NW 5 6 - - - - - - - 15.9 1018.2 0.0
25/07:00pm NW 4 5 - - - - - - - 15.9 1017.9 0.0
25/06:30pm W 3 5 - - - - - - - 16.1 1017.4 0.0
25/06:00pm W 3 4 - - - - - - - 16.0 1017.0 0.0
25/05:30pm W 3 4 - - - - - - - 16.1 1016.9 0.0
25/05:00pm WSW 3 4 - - - - - - - 16.9 1016.6 0.0
25/04:30pm WSW 3 5 - - - - - - - 17.2 1016.6 0.0
25/04:00pm SW 5 7 - - - - - - - 17.1 1016.3 0.0
25/03:30pm SW 6 9 - - - - - - - 17.0 1016.1 0.0
25/03:00pm SW 6 10 - - - - - - - 17.2 1016.2 0.0
25/02:30pm SW 6 10 - - - - - - - 17.7 1016.4 0.0
25/02:00pm SW 5 8 - - - - - - - 17.6 1016.6 0.0
25/01:30pm SW 6 8 - - - - - - - 17.6 1016.8 0.0
25/01:00pm SSW 5 8 - - - - - - - 18.0 1017.2 0.0
25/12:30pm SSW 5 9 - - - - - - - 17.7 1017.4 0.0
25/12:00pm S 5 8 - - - - - - - 17.4 1017.6 0.0
25/11:30am SSW 5 8 - - - - - - - 17.5 1017.8 0.0
25/11:00am SW 5 8 - - - - - - - 17.3 1018.0 0.0
25/10:30am S 5 10 - - - - - - - 17.2 1018.3 0.0
25/10:00am S 7 10 - - - - - - - 16.9 1018.5 0.0
25/09:30am S 8 11 - - - - - - - 16.6 1018.5 0.0
25/09:00am S 9 13 - - - - - - - 16.2 1018.4 0.0
25/08:30am S 11 15 - - - - - - - 15.6 1018.0 0.0
25/08:00am SSW 11 16 - - - - - - - 15.4 1017.9 0.0
25/07:30am S 8 10 - - - - - - - 15.0 1017.7 0.0
25/07:00am S 9 12 - - - - - - - 14.7 1017.4 0.0
25/06:30am S 10 14 - - - - - - - 14.8 1017.0 0.0
25/06:00am S 10 15 - - - - - - - 14.7 1016.7 0.0
25/05:30am S 17 23 - - - - - - - 15.3 1015.9 0.0
25/05:00am SSW 12 19 - - - - - - - 15.9 1015.6 0.0
25/04:30am SSW 12 19 - - - - - - - 15.7 1015.2 0.0
25/04:00am SSW 15 21 - - - - - - - 16.1 1015.0 0.0
25/03:30am SSW 15 21 - - - - - - - 16.2 1015.1 0.0
25/03:00am SSW 14 20 - - - - - - - 16.0 1015.1 0.0
25/02:30am SSW 16 21 - - - - - - - 16.3 1014.9 0.0
25/02:00am SSW 12 16 - - - - - - - 16.1 1015.5 0.0
25/01:30am SSW 10 15 - - - - - - - 16.0 1016.2 0.0
25/01:00am SSW 10 16 - - - - - - - 16.0 1016.3 0.0
25/12:30am SSW 13 18 - - - - - - - 16.3 1016.1 0.0
25/12:00am SSW 14 19 - - - - - - - 16.4 1016.1 0.0
 
Date/Time
EST
Wind Sea
Height
m
Swell Vis
km
Cloud Weather Temp
°C
Press
hPa
Rain since
9am
mm
Dir  Spd
kts
Gust
kts
Height
m
Period
s
Dir
24/11:30pm SSW 11 16 - - - - - - - 16.2 1016.6 0.0
24/11:00pm SW 10 16 - - - - - - - 16.2 1016.9 0.0
24/10:30pm SSW 7 13 - - - - - - - 16.0 1017.2 0.0
24/10:00pm SW 8 13 - - - - - - - 16.3 1017.3 0.0
24/09:30pm SW 6 10 - - - - - - - 15.9 1017.4 0.0
24/09:00pm SW 8 12 - - - - - - - 15.8 1017.1 0.0
24/08:30pm WSW 5 8 - - - - - - - 15.4 1017.0 0.0
24/08:00pm WSW 5 8 - - - - - - - 15.0 1016.7 0.0
24/07:30pm W 3 5 - - - - - - - 14.9 1016.4 0.0
24/07:00pm WSW 5 9 - - - - - - - 14.8 1015.8 0.0
24/06:30pm WSW 5 8 - - - - - - - 14.7 1015.4 0.0
24/06:00pm WSW 8 11 - - - - - - - 14.9 1014.3 0.0
24/05:30pm SW 10 15 - - - - - - - 15.1 1014.1 0.0
24/05:00pm SW 12 20 - - - - - - - 15.5 1013.7 0.0
24/04:30pm SW 10 14 - - - - - - - 15.7 1013.5 0.0
24/04:00pm SW 10 16 - - - - - - - 16.0 1013.5 0.0
24/03:30pm SW 11 16 - - - - - - - 16.1 1013.4 0.0
24/03:00pm SW 12 19 - - - - - - - 16.1 1013.2 0.0
24/02:30pm SSW 14 19 - - - - - - - 15.7 1013.0 0.0
24/02:00pm SSW 13 17 - - - - - - - 15.8 1013.2 0.0
24/01:30pm SSW 14 19 - - - - - - - 15.2 1013.6 0.0
24/01:00pm SW 14 21 - - - - - - - 15.1 1014.2 0.0
24/12:30pm SSW 13 19 - - - - - - - 15.2 1014.8 0.0
24/12:00pm SSW 14 20 - - - - - - - 15.3 1015.4 0.0
24/11:30am SSW 13 18 - - - - - - - 15.2 1015.8 0.0
24/11:00am SSW 15 21 - - - - - - - 15.1 1016.0 0.0
24/10:30am S 14 19 - - - - - - - 14.4 1016.2 0.0
24/10:00am S 11 16 - - - - - - - 14.5 1016.8 0.0
24/09:30am S 10 14 - - - - - - - 13.8 1017.0 0.0
24/09:00am S 10 14 - - - - - - - 13.6 1017.0 -
24/08:00am S 13 21 - - - - - - - 13.4 1015.8 14.2
24/07:30am SSW 13 19 - - - - - - - 13.4 1015.2 14.2
24/07:00am SSW 11 18 - - - - - - - 13.4 1014.9 14.2
24/06:30am SSW 12 18 - - - - - - - 13.5 1014.5 14.2
24/06:00am SSW 16 21 - - - - - - - 13.7 1013.9 14.2
24/05:30am SSW 17 25 - - - - - - - 13.7 1013.5 14.2
24/05:00am SSW 18 23 - - - - - - - 13.9 1013.3 14.2
24/04:30am SSW 13 18 - - - - - - - 13.8 1013.2 14.2
24/04:00am SSW 13 19 - - - - - - - 13.7 1013.5 14.2
24/03:30am SSW 11 17 - - - - - - - 13.9 1013.3 14.2
24/03:00am SSW 13 19 - - - - - - - 14.0 1013.3 14.2
24/02:30am SSW 11 18 - - - - - - - 13.9 1014.4 14.2
24/02:08am SSW 11 16 - - - - - - - 13.8 1012.9 14.2
24/02:00am SSW 11 17 - - - - - - - 13.9 1014.9 14.2
24/01:57am SSW 11 17 - - - - - - - 13.9 1014.7 14.2
24/01:30am SSW 11 18 - - - - - - - 13.7 1012.7 14.2
24/01:29am SSW 11 18 - - - - - - - 13.9 1012.8 14.2
24/01:19am SSW 13 18 - - - - - - - 13.9 1014.9 14.2
24/01:00am S 13 18 - - - - - - - 13.8 1012.8 14.2
24/12:51am SSW 10 15 - - - - - - - 13.7 1013.2 14.2
24/12:30am SSW 10 14 - - - - - - - 13.8 1015.2 14.2
24/12:00am SSW 13 18 - - - - - - - 13.6 1013.8 14.2
 
Date/Time
EST
Wind Sea
Height
m
Swell Vis
km
Cloud Weather Temp
°C
Press
hPa
Rain since
9am
mm
Dir  Spd
kts
Gust
kts
Height
m
Period
s
Dir
23/11:49pm SSW 12 17 - - - - - - - 13.4 1013.4 14.2
23/11:30pm SSW 12 17 - - - - - - - 13.6 1015.5 14.2
23/11:00pm SSW 11 16 - - - - - - - 13.3 1015.1 14.2
23/10:30pm SSW 12 16 - - - - - - - 13.2 1015.2 14.2
23/10:15pm SSW 8 12 - - - - - - - 13.1 1014.1 14.2
23/10:00pm SSW 10 14 - - - - - - - 13.1 1016.2 14.2
23/09:30pm S 11 17 - - - - - - - 12.7 1014.5 14.2
23/09:00pm SSW 9 12 - - - - - - - 12.8 1015.4 14.2
23/08:30pm SSW 15 21 - - - - - - - 12.9 1015.3 14.2
23/08:00pm SSW 14 20 - - - - - - - 12.7 1015.1 14.2
23/07:30pm SSW 10 14 - - - - - - - 12.2 1015.7 14.2
23/07:00pm S 11 14 - - - - - - - 12.1 1013.8 14.0
23/06:30pm SSW 9 13 - - - - - - - 12.2 1013.3 14.0
23/06:00pm SSW 12 16 - - - - - - Recent precip. 12.0 1014.9 14.0
23/05:30pm SW 7 12 - - - - - - - 12.0 1013.9 13.8
23/05:00pm S 6 8 - - - - - - - 11.9 1013.1 13.8
23/04:30pm SSW 11 17 - - - - - - - 12.1 1013.7 13.2
23/04:00pm SSW 11 16 - - - - - - - 12.2 1013.4 13.0
23/03:30pm SSW 9 13 - - - - - - - 11.9 1014.1 12.4
23/03:00pm SSW 11 14 - - - - - - Recent precip. 11.8 1013.9 11.2
23/02:30pm SSW 12 19 - - - - - - - 11.7 1014.1 10.6
23/02:00pm SSW 15 19 - - - - - - - 11.4 1013.6 9.6

Other formats

Comma delimited format used in spreadsheet applications
http://www.bom.gov.au/fwo/IDQ60701/IDQ60701.94372.axf

JavaScript Object Notation format (JSON) in row-major order
http://www.bom.gov.au/fwo/IDQ60701/IDQ60701.94372.json

Data quality

Most of these data are generated automatically and are frequently updated. Quality checks on data are not normally performed. It is possible for incorrect values to appear. Refer to information at About Latest Weather Observations and please check the disclaimer before using these data.